Time;durP1;ratioP1;P1;durP2;ratioP2;P2;SDS_P1;SDS_P2;PMS_P1;PMS_P2;Temp;Humidity;BMP_temperature;BMP_pressure;BME280_temperature;BME280_humidity;BME280_pressure;Samples;Min_cycle;Max_cycle;Signal;HPM_P1;HPM_P2
2022/08/30 00:01:16;;;;;;;15.08;9.48;;;;;;;21.09;75.54;99451.42;1649735;86;21086;-80
2022/08/30 00:03:44;;;;;;;17.82;9.73;;;;;;;21.11;75.32;99452.98;1642201;86;21181;-80
2022/08/30 00:06:12;;;;;;;16.65;9.68;;;;;;;21.10;75.56;99451.30;1667180;86;21214;-79
2022/08/30 00:08:39;;;;;;;17.23;10.20;;;;;;;21.09;75.49;99452.26;1666787;86;21161;-79
2022/08/30 00:11:09;;;;;;;18.32;10.00;;;;;;;21.10;75.32;99445.11;1666963;86;21632;-80
2022/08/30 00:13:37;;;;;;;18.23;10.20;;;;;;;21.10;75.32;99451.30;1666790;86;21099;-79
2022/08/30 00:16:05;;;;;;;13.10;9.80;;;;;;;21.10;75.65;99447.28;1666957;85;21149;-79
2022/08/30 00:18:33;;;;;;;15.10;10.60;;;;;;;21.05;75.83;99454.83;1666857;86;21564;-78
2022/08/30 00:21:00;;;;;;;18.02;10.90;;;;;;;21.01;76.02;99453.84;1666818;86;21111;-79
2022/08/30 00:23:27;;;;;;;19.40;10.20;;;;;;;20.96;76.20;99444.37;1666855;86;21138;-79
2022/08/30 00:25:53;;;;;;;15.55;10.88;;;;;;;20.98;76.40;99449.61;1667155;84;21142;-79
2022/08/30 00:28:20;;;;;;;19.80;11.63;;;;;;;20.99;76.41;99449.95;1666844;84;22197;-77
2022/08/30 00:30:47;;;;;;;24.82;12.20;;;;;;;20.98;76.50;99450.95;1666960;86;21641;-79
2022/08/30 00:33:14;;;;;;;16.62;10.93;;;;;;;20.96;76.72;99461.77;1666617;84;21097;-80
2022/08/30 00:35:42;;;;;;;16.87;10.82;;;;;;;20.91;76.87;99453.72;1666952;86;21200;-80
2022/08/30 00:38:09;;;;;;;19.10;10.80;;;;;;;20.88;77.14;99453.95;1666871;86;21176;-80
2022/08/30 00:40:37;;;;;;;17.65;10.32;;;;;;;20.86;77.30;99454.06;1666766;85;21126;-79
2022/08/30 00:43:07;;;;;;;15.30;10.78;;;;;;;20.85;77.29;99451.55;1667030;85;21252;-79
2022/08/30 00:45:35;;;;;;;16.20;9.93;;;;;;;20.84;77.52;99457.36;1644794;85;21141;-79
2022/08/30 00:48:02;;;;;;;15.05;9.75;;;;;;;20.81;77.74;99454.08;1667289;86;21150;-79
2022/08/30 00:50:34;;;;;;;12.47;9.00;;;;;;;20.78;77.77;99455.19;1656848;85;21111;-78
2022/08/30 00:53:03;;;;;;;14.18;8.98;;;;;;;20.74;77.91;99463.90;1634331;87;21050;-78
2022/08/30 00:55:32;;;;;;;11.40;9.33;;;;;;;20.69;78.18;99458.55;1634309;87;21490;-80
2022/08/30 00:58:01;;;;;;;12.47;9.05;;;;;;;20.64;78.29;99460.24;1605064;89;21526;-80
2022/08/30 01:00:27;;;;;;;14.33;9.28;;;;;;;20.62;78.41;99470.17;1624264;88;21039;-79
2022/08/30 01:02:54;;;;;;;14.50;9.23;;;;;;;20.64;78.31;99469.59;1624338;88;21106;-80
2022/08/30 01:05:21;;;;;;;13.78;9.80;;;;;;;20.64;78.39;99465.59;1605201;88;21723;-80
2022/08/30 01:07:47;;;;;;;14.40;8.38;;;;;;;20.61;78.55;99468.49;1624568;87;21229;-79
2022/08/30 01:10:15;;;;;;;11.90;8.50;;;;;;;20.58;78.57;99464.72;1636054;86;21048;-78
2022/08/30 01:12:43;;;;;;;11.90;8.68;;;;;;;20.56;78.68;99470.64;1634342;86;21074;-78
2022/08/30 01:15:13;;;;;;;10.95;8.73;;;;;;;20.54;78.67;99469.91;1605262;88;21111;-79
2022/08/30 01:17:43;;;;;;;17.60;9.15;;;;;;;20.51;78.61;99468.80;1605048;88;21565;-79
2022/08/30 01:20:16;;;;;;;11.30;8.80;;;;;;;20.51;78.33;99467.01;1634116;87;21210;-79
2022/08/30 01:22:51;;;;;;;15.28;8.63;;;;;;;20.54;78.34;99469.91;1604886;89;21050;-79
2022/08/30 01:25:22;;;;;;;15.13;9.10;;;;;;;20.53;78.50;99468.23;1601611;89;21106;-80
2022/08/30 01:28:06;;;;;;;11.97;8.95;;;;;;;20.47;78.68;99467.35;1604782;88;21169;-80
2022/08/30 01:30:32;;;;;;;12.75;8.50;;;;;;;20.41;78.92;99465.52;1622947;87;21074;-79
2022/08/30 01:33:02;;;;;;;12.25;8.80;;;;;;;20.37;78.83;99464.03;1604939;89;21213;-79
2022/08/30 01:35:32;;;;;;;13.20;8.40;;;;;;;20.37;79.06;99464.03;1635141;86;20935;-78
2022/08/30 01:37:59;;;;;;;11.70;8.53;;;;;;;20.35;79.21;99460.63;1634374;87;21019;-78
2022/08/30 01:40:26;;;;;;;14.25;9.40;;;;;;;20.33;79.48;99455.89;1634257;87;21031;-79
2022/08/30 01:42:52;;;;;;;15.72;9.18;;;;;;;20.30;79.54;99459.29;1634476;87;21071;-78
2022/08/30 01:45:19;;;;;;;12.47;9.05;;;;;;;20.27;79.85;99456.35;1605006;89;21165;-77
2022/08/30 01:47:45;;;;;;;15.60;9.78;;;;;;;20.21;80.45;99459.51;1604918;89;21521;-79
2022/08/30 01:50:12;;;;;;;14.35;9.45;;;;;;;20.13;80.79;99456.56;1606425;86;21129;-79
2022/08/30 01:52:39;;;;;;;13.50;9.40;;;;;;;20.07;81.19;99455.67;1629211;88;21094;-79
2022/08/30 01:55:08;;;;;;;15.10;10.00;;;;;;;20.01;81.82;99463.18;1629371;87;21135;-78
2022/08/30 01:57:34;;;;;;;14.87;8.85;;;;;;;19.94;82.37;99460.61;1629525;88;21151;-79
2022/08/30 02:00:01;;;;;;;15.43;8.70;;;;;;;19.88;82.50;99463.73;1629039;88;21004;-79
2022/08/30 02:02:30;;;;;;;13.13;9.48;;;;;;;19.84;83.12;99464.93;1629653;86;21066;-79
2022/08/30 02:04:57;;;;;;;14.33;8.98;;;;;;;19.77;83.27;99460.98;1629135;87;21036;-79
2022/08/30 02:07:23;;;;;;;17.50;9.68;;;;;;;19.73;83.81;99466.16;1629440;87;21150;-79
2022/08/30 02:09:51;;;;;;;14.38;9.73;;;;;;;19.68;84.17;99462.00;1629612;87;21232;-78
2022/08/30 02:12:18;;;;;;;17.82;9.48;;;;;;;19.65;84.82;99466.25;1629200;88;21032;-79
2022/08/30 02:14:45;;;;;;;17.10;9.08;;;;;;;19.59;85.08;99467.19;1629280;88;21068;-80
2022/08/30 02:17:12;;;;;;;13.58;8.95;;;;;;;19.54;85.34;99472.84;1629298;88;21105;-79
2022/08/30 02:19:39;;;;;;;15.68;9.23;;;;;;;19.53;85.43;99470.28;1629554;88;21138;-79
2022/08/30 02:22:06;;;;;;;15.28;9.00;;;;;;;19.51;85.74;99468.22;1629468;88;21209;-80
2022/08/30 02:24:34;;;;;;;11.85;9.10;;;;;;;19.47;86.27;99476.94;1629312;88;21074;-79
2022/08/30 02:27:01;;;;;;;12.73;9.63;;;;;;;19.41;86.61;99477.36;1629277;88;21103;-78
2022/08/30 02:29:28;;;;;;;16.75;10.58;;;;;;;19.36;86.98;99483.52;1629270;87;21095;-78
2022/08/30 02:31:55;;;;;;;11.15;8.75;;;;;;;19.32;87.27;99478.88;1629331;88;21071;-79
2022/08/30 02:34:21;;;;;;;19.57;10.45;;;;;;;19.28;87.50;99480.92;1629391;88;21810;-79
2022/08/30 02:36:48;;;;;;;17.60;9.40;;;;;;;19.27;87.64;99485.88;1629264;88;21063;-79
2022/08/30 02:39:15;;;;;;;21.00;9.68;;;;;;;19.25;87.91;99482.47;1629372;88;21090;-78
2022/08/30 02:41:41;;;;;;;12.05;9.05;;;;;;;19.26;88.08;99488.16;1629300;88;21110;-78
2022/08/30 02:44:09;;;;;;;12.90;9.85;;;;;;;19.24;88.09;99489.24;1629659;88;21727;-80
2022/08/30 02:46:36;;;;;;;14.53;9.30;;;;;;;19.22;88.38;99497.35;1629224;88;21987;-79
2022/08/30 02:49:03;;;;;;;17.02;9.58;;;;;;;19.18;88.41;99490.55;1629336;88;21761;-80
2022/08/30 02:51:30;;;;;;;14.55;9.60;;;;;;;19.17;88.50;99494.16;1624798;87;21063;-80
2022/08/30 02:53:57;;;;;;;13.48;9.58;;;;;;;19.17;88.88;99499.49;1618834;88;21074;-79
2022/08/30 02:56:23;;;;;;;16.80;9.73;;;;;;;19.12;89.01;99501.14;1618739;88;21106;-79
2022/08/30 02:58:49;;;;;;;13.40;10.23;;;;;;;19.08;89.38;99501.00;1618618;87;22337;-79
2022/08/30 03:01:17;;;;;;;17.85;10.00;;;;;;;19.05;89.81;99507.03;1606837;89;21249;-79
2022/08/30 03:03:44;;;;;;;14.60;9.55;;;;;;;18.99;90.04;99505.63;1607030;89;21185;-80
2022/08/30 03:06:11;;;;;;;12.40;9.40;;;;;;;18.96;90.17;99503.66;1621120;88;21134;-79
2022/08/30 03:08:37;;;;;;;13.45;10.03;;;;;;;18.96;90.34;99511.66;1620775;87;21162;-79
2022/08/30 03:11:04;;;;;;;17.10;10.53;;;;;;;18.96;90.57;99509.83;1620745;88;21212;-80
2022/08/30 03:13:32;;;;;;;15.90;9.90;;;;;;;18.93;90.75;99510.92;1620688;87;21122;-80
2022/08/30 03:15:59;;;;;;;12.50;9.90;;;;;;;18.91;90.77;99515.52;1620717;88;21171;-80
2022/08/30 03:18:25;;;;;;;15.48;10.70;;;;;;;18.91;90.74;99515.52;1620913;87;22338;-79
2022/08/30 03:20:52;;;;;;;15.72;10.58;;;;;;;18.91;90.89;99510.64;1620688;88;21048;-80
2022/08/30 03:23:19;;;;;;;21.17;10.60;;;;;;;18.90;90.87;99516.45;1620783;88;21308;-80
2022/08/30 03:25:45;;;;;;;14.53;11.30;;;;;;;18.90;91.19;99517.79;1620707;88;21083;-80
2022/08/30 03:28:13;;;;;;;19.12;11.15;;;;;;;18.87;91.52;99522.48;1620804;88;21135;-80
2022/08/30 03:30:39;;;;;;;15.85;11.03;;;;;;;18.81;91.91;99522.86;1621034;88;21087;-80
2022/08/30 03:33:06;;;;;;;12.88;10.63;;;;;;;18.76;92.22;99520.50;1620800;88;21082;-79
2022/08/30 03:35:33;;;;;;;17.37;9.93;;;;;;;18.74;92.48;99523.77;1620688;87;21204;-80
2022/08/30 03:38:00;;;;;;;14.90;11.05;;;;;;;18.76;92.68;99519.17;1620746;88;21063;-79
2022/08/30 03:40:27;;;;;;;19.23;11.70;;;;;;;18.76;92.88;99531.17;1620989;87;21096;-79
2022/08/30 03:42:53;;;;;;;15.38;11.28;;;;;;;18.71;93.06;99542.63;1620863;88;21143;-79
2022/08/30 03:45:20;;;;;;;18.75;11.48;;;;;;;18.63;93.35;99537.83;1620832;88;21071;-79
2022/08/30 03:47:46;;;;;;;17.10;11.48;;;;;;;18.58;93.87;99539.95;1620876;87;21187;-79
2022/08/30 03:50:14;;;;;;;16.30;12.58;;;;;;;18.52;94.18;99550.53;1620820;87;21059;-79
2022/08/30 03:52:41;;;;;;;19.35;12.18;;;;;;;18.49;94.51;99553.88;1640521;87;21070;-79
2022/08/30 03:55:08;;;;;;;17.55;11.97;;;;;;;18.44;95.14;99552.88;1605197;88;21119;-80
2022/08/30 03:57:35;;;;;;;21.37;13.00;;;;;;;18.39;95.47;99556.30;1604938;89;21098;-79
2022/08/30 04:00:03;;;;;;;18.62;11.95;;;;;;;18.34;95.86;99557.08;1605035;89;21952;-79
2022/08/30 04:02:32;;;;;;;18.27;11.63;;;;;;;18.31;96.34;99563.97;1604715;89;21186;-76
2022/08/30 04:04:58;;;;;;;16.07;12.70;;;;;;;18.27;96.73;99562.45;1605192;89;21098;-79
2022/08/30 04:07:25;;;;;;;14.75;11.95;;;;;;;18.25;97.21;99572.35;1604917;89;21546;-79
2022/08/30 04:09:51;;;;;;;17.87;12.07;;;;;;;18.22;97.47;99568.55;1605125;89;21094;-78
2022/08/30 04:12:19;;;;;;;16.52;12.40;;;;;;;18.22;97.95;99571.22;1605095;89;21082;-79
2022/08/30 04:14:46;;;;;;;16.17;12.55;;;;;;;18.18;98.38;99569.23;1604766;89;21164;-80
2022/08/30 04:17:14;;;;;;;18.15;12.70;;;;;;;18.16;98.70;99569.82;1604885;89;21152;-79
2022/08/30 04:19:41;;;;;;;18.37;11.70;;;;;;;18.19;98.90;99570.47;1604989;89;21141;-80
2022/08/30 04:22:07;;;;;;;15.28;11.65;;;;;;;18.24;98.82;99565.30;1604912;89;21158;-79
2022/08/30 04:24:37;;;;;;;14.35;11.08;;;;;;;18.30;98.85;99559.59;1604859;89;21103;-80
2022/08/30 04:27:04;;;;;;;16.50;11.93;;;;;;;18.35;98.70;99554.80;1605087;89;21154;-78
2022/08/30 04:29:32;;;;;;;14.38;10.68;;;;;;;18.38;98.64;99563.94;1646282;86;21093;-79
2022/08/30 04:31:59;;;;;;;13.95;11.70;;;;;;;18.41;98.44;99562.41;1646481;86;21378;-79
2022/08/30 04:34:25;;;;;;;43.73;24.00;;;;;;;18.46;98.21;99573.61;1646655;87;21080;-80
2022/08/30 04:36:52;;;;;;;23.57;14.90;;;;;;;18.49;98.04;99574.73;1604975;88;21172;-79
2022/08/30 04:39:18;;;;;;;14.87;11.95;;;;;;;18.53;97.89;99571.39;1605052;88;21103;-79
2022/08/30 04:41:45;;;;;;;16.15;11.97;;;;;;;18.55;97.80;99571.64;1604713;89;21158;-78
2022/08/30 04:44:11;;;;;;;12.75;10.90;;;;;;;18.61;97.53;99564.19;1604821;89;22398;-79
2022/08/30 04:46:38;;;;;;;15.25;10.68;;;;;;;18.65;97.33;99560.38;1604876;89;21134;-79
2022/08/30 04:49:05;;;;;;;12.40;9.60;;;;;;;18.71;96.83;99570.61;1604973;89;21186;-79
2022/08/30 04:51:33;;;;;;;14.93;9.88;;;;;;;18.75;96.27;99568.13;1600152;89;21149;-80
2022/08/30 04:53:59;;;;;;;14.05;9.28;;;;;;;18.78;95.94;99570.59;1637368;87;21122;-80
2022/08/30 04:56:26;;;;;;;19.48;8.60;;;;;;;18.81;95.46;99581.05;1637441;87;21113;-79
2022/08/30 04:58:54;;;;;;;9.03;8.13;;;;;;;18.84;94.88;99572.01;1637471;87;21853;-80
2022/08/30 05:01:27;;;;;;;11.45;8.60;;;;;;;18.88;94.54;99573.03;1637412;87;21209;-80
2022/08/30 05:03:54;;;;;;;9.15;8.25;;;;;;;18.91;94.15;99572.83;1637436;87;21049;-80
2022/08/30 05:06:21;;;;;;;10.18;8.35;;;;;;;18.97;93.90;99581.37;1637472;87;21083;-79
2022/08/30 05:08:48;;;;;;;9.43;8.30;;;;;;;19.02;93.46;99571.23;1637498;87;21078;-79
2022/08/30 05:11:15;;;;;;;8.98;8.08;;;;;;;19.06;93.12;99572.27;1637239;87;21124;-79
2022/08/30 05:13:43;;;;;;;10.95;7.35;;;;;;;19.11;92.57;99575.46;1637295;87;21162;-80
2022/08/30 05:16:09;;;;;;;7.92;6.78;;;;;;;19.17;91.86;99576.84;1637572;87;21106;-80
2022/08/30 05:18:36;;;;;;;10.50;7.50;;;;;;;19.23;91.28;99569.75;1637295;87;21098;-76
2022/08/30 05:21:10;;;;;;;12.43;7.00;;;;;;;19.26;90.86;99573.52;1637490;87;21170;-79
2022/08/30 05:23:38;;;;;;;10.28;6.72;;;;;;;19.28;90.31;99570.74;1637355;87;21118;-80
2022/08/30 05:26:17;;;;;;;7.53;6.80;;;;;;;19.31;90.22;99571.38;1637493;87;21996;-79
2022/08/30 05:28:44;;;;;;;10.03;7.00;;;;;;;19.35;89.57;99577.84;1636810;87;21417;-79
2022/08/30 05:31:15;;;;;;;7.08;6.33;;;;;;;19.40;89.30;99569.03;1637333;87;21100;-79
2022/08/30 05:33:42;;;;;;;8.98;6.83;;;;;;;19.45;88.79;99573.56;1637118;87;21208;-80
2022/08/30 05:36:09;;;;;;;8.53;6.80;;;;;;;19.51;88.58;99569.13;1637331;87;21103;-79
2022/08/30 05:38:36;;;;;;;11.50;6.72;;;;;;;19.58;87.85;99575.73;1637445;87;21188;-80
2022/08/30 05:41:03;;;;;;;9.98;5.45;;;;;;;19.62;87.09;99576.39;1637131;86;21649;-79
2022/08/30 05:43:30;;;;;;;7.87;5.35;;;;;;;19.65;86.58;99566.34;1637500;87;21050;-80
2022/08/30 05:46:00;;;;;;;11.53;7.33;;;;;;;19.72;86.48;99563.22;1637282;87;21557;-80
2022/08/30 05:48:27;;;;;;;8.68;6.50;;;;;;;19.79;86.19;99564.53;1637521;87;21090;-80
2022/08/30 05:51:10;;;;;;;6.78;6.08;;;;;;;19.85;85.99;99570.29;1637010;87;21153;-79
2022/08/30 05:53:37;;;;;;;9.40;6.12;;;;;;;19.95;85.47;99572.27;1646079;86;21142;-80
2022/08/30 05:56:07;;;;;;;10.18;6.08;;;;;;;20.04;84.80;99565.78;1605013;89;21038;-80
2022/08/30 05:58:34;;;;;;;6.28;5.60;;;;;;;20.09;84.54;99565.45;1624874;87;21020;-79
2022/08/30 06:01:01;;;;;;;5.08;4.58;;;;;;;20.15;84.44;99566.81;1604927;88;21121;-79
2022/08/30 06:03:28;;;;;;;6.65;5.17;;;;;;;20.27;84.17;99557.03;1606130;88;21263;-79
2022/08/30 06:05:54;;;;;;;6.33;4.85;;;;;;;20.39;83.26;99565.46;1634812;86;21072;-81
2022/08/30 06:08:21;;;;;;;5.65;5.12;;;;;;;20.46;81.84;99563.19;1606730;88;21055;-79
2022/08/30 06:10:48;;;;;;;6.05;4.72;;;;;;;20.50;81.49;99553.98;1625008;88;21051;-79
2022/08/30 06:13:15;;;;;;;8.83;5.10;;;;;;;20.56;81.24;99561.52;1624749;88;21645;-80
2022/08/30 06:15:43;;;;;;;6.35;5.03;;;;;;;20.64;80.91;99564.50;1606724;88;21347;-79
2022/08/30 06:18:11;;;;;;;11.73;4.80;;;;;;;20.73;80.04;99566.98;1607112;88;21097;-80
2022/08/30 06:20:42;;;;;;;9.70;5.30;;;;;;;20.78;79.32;99574.17;1624829;88;21015;-80
2022/08/30 06:23:09;;;;;;;10.80;5.50;;;;;;;20.82;79.00;99574.29;1605322;88;21054;-80
2022/08/30 06:25:37;;;;;;;8.10;4.75;;;;;;;20.88;78.26;99567.61;1624839;88;21020;-80
2022/08/30 06:28:04;;;;;;;9.08;4.72;;;;;;;20.93;78.24;99572.99;1605889;88;21876;-79
2022/08/30 06:30:32;;;;;;;5.00;4.58;;;;;;;20.98;78.04;99575.32;1605204;88;21061;-80
2022/08/30 06:32:59;;;;;;;4.55;4.15;;;;;;;21.04;77.98;99568.14;1624687;87;21020;-79
2022/08/30 06:35:26;;;;;;;7.35;5.20;;;;;;;21.14;76.96;99577.64;1634366;87;20954;-80
2022/08/30 06:37:53;;;;;;;6.05;3.87;;;;;;;21.21;76.35;99574.85;1605715;88;21119;-79
2022/08/30 06:40:21;;;;;;;7.05;4.03;;;;;;;21.31;75.34;99574.49;1605342;88;21652;-80
2022/08/30 06:42:50;;;;;;;6.92;3.90;;;;;;;21.38;74.72;99577.54;1605979;88;21058;-80
2022/08/30 06:45:17;;;;;;;4.30;3.75;;;;;;;21.45;73.85;99573.43;1605150;88;21083;-79
2022/08/30 06:47:44;;;;;;;10.75;3.55;;;;;;;21.51;73.73;99572.95;1604908;89;21034;-79
2022/08/30 06:50:11;;;;;;;10.00;3.52;;;;;;;21.60;71.65;99571.39;1634653;85;21095;-79
2022/08/30 06:52:41;;;;;;;3.50;3.20;;;;;;;21.65;70.49;99579.03;1605232;88;21088;-80
2022/08/30 06:55:12;;;;;;;9.68;3.35;;;;;;;21.69;69.97;99569.80;1634382;85;20980;-79
2022/08/30 06:57:38;;;;;;;3.20;2.85;;;;;;;21.76;70.32;99571.00;1634424;87;21043;-78
2022/08/30 07:00:07;;;;;;;4.15;2.87;;;;;;;21.85;70.44;99568.06;1634307;87;21058;-80
2022/08/30 07:02:36;;;;;;;3.98;2.67;;;;;;;21.97;68.82;99575.59;1634413;87;21580;-79
2022/08/30 07:05:04;;;;;;;6.87;2.95;;;;;;;22.08;66.48;99579.60;1634383;87;22067;-78
2022/08/30 07:07:30;;;;;;;3.62;2.50;;;;;;;22.15;66.30;99576.77;1634388;86;21604;-78
2022/08/30 07:09:58;;;;;;;2.87;2.67;;;;;;;22.25;65.40;99571.02;1634462;87;21553;-79
2022/08/30 07:12:25;;;;;;;2.70;2.50;;;;;;;22.34;64.91;99574.83;1634391;87;21087;-79
2022/08/30 07:14:52;;;;;;;9.98;3.05;;;;;;;22.44;62.70;99581.58;1634423;87;21015;-79
2022/08/30 07:20:04;;;;;;;6.60;2.83;;;;;;;22.47;61.16;99594.73;1634524;87;21119;-79
2022/08/30 07:22:34;;;;;;;4.53;2.62;;;;;;;22.46;61.84;99576.97;1634290;86;21086;-80
2022/08/30 07:25:01;;;;;;;5.47;2.77;;;;;;;22.52;61.81;99587.16;1634472;87;21032;-80
2022/08/30 07:27:27;;;;;;;5.20;2.52;;;;;;;22.58;62.22;99582.64;1634277;87;21118;-80
2022/08/30 07:29:57;;;;;;;9.65;3.17;;;;;;;22.70;61.53;99581.26;1634337;87;21141;-79
2022/08/30 07:32:23;;;;;;;4.78;2.98;;;;;;;22.85;59.82;99588.47;1634134;87;21106;-80
2022/08/30 07:34:50;;;;;;;11.80;3.05;;;;;;;22.92;59.03;99586.48;1634306;87;21588;-80
2022/08/30 07:37:17;;;;;;;7.75;2.60;;;;;;;22.98;58.03;99594.50;1634284;87;21086;-79
2022/08/30 07:39:44;;;;;;;5.03;2.45;;;;;;;23.02;57.00;99587.06;1634441;86;21094;-75
2022/08/30 07:42:11;;;;;;;10.18;2.42;;;;;;;23.05;56.87;99589.45;1634260;86;21580;-79
2022/08/30 07:44:38;;;;;;;3.12;2.40;;;;;;;23.08;57.05;99579.84;1634555;86;21577;-81
2022/08/30 07:47:05;;;;;;;4.55;2.20;;;;;;;23.15;55.57;99591.77;1634460;86;21119;-80
2022/08/30 07:49:31;;;;;;;7.12;2.50;;;;;;;23.18;54.80;99576.25;1634544;87;21201;-80
2022/08/30 07:51:58;;;;;;;5.15;2.40;;;;;;;23.19;55.49;99579.77;1634252;87;21106;-82
2022/08/30 07:54:24;;;;;;;6.45;2.20;;;;;;;23.21;54.99;99584.52;1652206;86;21260;-79
2022/08/30 07:56:54;;;;;;;4.80;2.60;;;;;;;23.26;54.40;99584.96;1641088;87;21169;-81
2022/08/30 07:59:19;;;;;;;5.70;2.52;;;;;;;23.32;53.63;99587.13;1641632;87;21196;-80
2022/08/30 08:01:46;;;;;;;3.70;2.02;;;;;;;23.40;53.68;99584.26;1640892;86;21192;-80
2022/08/30 08:04:12;;;;;;;11.45;2.33;;;;;;;23.46;53.10;99587.26;1641358;87;21081;-80
2022/08/30 08:06:40;;;;;;;5.60;2.50;;;;;;;23.51;53.01;99589.55;1641155;87;21701;-81
2022/08/30 08:09:07;;;;;;;2.72;2.35;;;;;;;23.54;53.12;99584.76;1641194;87;21077;-80
2022/08/30 08:11:35;;;;;;;4.90;2.22;;;;;;;23.57;53.43;99579.63;1641212;87;21098;-80
2022/08/30 08:14:03;;;;;;;7.12;2.33;;;;;;;23.65;52.73;99575.73;1641110;87;21058;-79
2022/08/30 08:16:32;;;;;;;4.42;1.85;;;;;;;23.69;51.69;99581.21;1641179;87;21097;-81
2022/08/30 08:18:59;;;;;;;4.25;2.17;;;;;;;23.76;51.23;99585.55;1641111;87;21690;-80
2022/08/30 08:21:26;;;;;;;2.65;2.15;;;;;;;23.81;51.78;99575.75;1640997;87;21026;-80
2022/08/30 08:23:52;;;;;;;3.33;2.40;;;;;;;23.90;50.79;99572.25;1641237;87;21082;-80
2022/08/30 08:26:19;;;;;;;7.45;2.50;;;;;;;24.01;49.63;99572.66;1641361;86;21118;-81
2022/08/30 08:28:46;;;;;;;3.70;2.30;;;;;;;24.08;49.67;99566.57;1641119;86;21094;-77
2022/08/30 08:31:18;;;;;;;4.33;2.65;;;;;;;24.20;48.30;99577.20;1641084;87;21194;-80
2022/08/30 08:33:44;;;;;;;7.45;2.45;;;;;;;24.30;48.14;99583.45;1641232;87;21141;-81
2022/08/30 08:36:11;;;;;;;3.67;2.35;;;;;;;24.32;48.10;99583.31;1641214;87;21252;-81
2022/08/30 08:38:38;;;;;;;8.60;2.90;;;;;;;24.26;47.66;99588.26;1641097;87;21076;-81
2022/08/30 08:41:27;;;;;;;4.08;2.40;;;;;;;24.18;47.00;99584.56;1641264;87;21583;-81
2022/08/30 08:43:54;;;;;;;8.25;2.10;;;;;;;24.13;46.27;99580.11;1641093;86;21109;-80
2022/08/30 08:46:34;;;;;;;4.42;1.82;;;;;;;24.08;45.42;99585.89;1641283;87;20999;-79
2022/08/30 08:49:04;;;;;;;5.20;2.00;;;;;;;24.10;45.27;99578.02;1641110;87;21185;-81
2022/08/30 08:54:41;;;;;;;7.50;2.60;;;;;;;24.25;45.54;99577.64;1641140;86;21075;-81
2022/08/30 08:57:09;;;;;;;7.85;2.33;;;;;;;24.31;45.88;99577.09;1641093;87;22225;-80
2022/08/30 08:59:37;;;;;;;5.72;2.27;;;;;;;24.42;45.72;99575.59;1641104;87;21506;-79
2022/08/30 09:02:17;;;;;;;9.93;2.60;;;;;;;24.51;45.37;99567.67;1641314;87;21995;-80
2022/08/30 09:04:44;;;;;;;6.70;2.10;;;;;;;24.57;45.59;99581.94;1640194;87;21079;-80
2022/08/30 09:07:25;;;;;;;5.08;2.10;;;;;;;24.61;44.77;99572.58;1641234;87;21102;-79
2022/08/30 09:09:52;;;;;;;12.33;2.37;;;;;;;24.63;45.00;99573.31;1641237;86;21633;-81
2022/08/30 09:12:19;;;;;;;4.42;2.60;;;;;;;24.69;46.20;99578.61;1641378;87;21177;-80
2022/08/30 09:14:50;;;;;;;3.80;2.08;;;;;;;24.79;46.09;99574.91;1640956;87;21082;-79
2022/08/30 09:17:18;;;;;;;5.05;2.40;;;;;;;24.87;45.09;99575.55;1641246;87;21659;-81
2022/08/30 09:19:57;;;;;;;6.12;2.30;;;;;;;24.93;44.33;99579.50;1641043;87;21066;-81
2022/08/30 09:22:32;;;;;;;5.12;1.98;;;;;;;24.98;44.86;99577.22;1641164;87;22277;-79
2022/08/30 09:25:07;;;;;;;2.92;2.20;;;;;;;24.97;44.23;99580.42;1641224;87;21675;-80
2022/08/30 09:27:37;;;;;;;;;;;;;;;24.95;43.84;99570.77;1643660;86;21643;-79
2022/08/30 09:30:27;;;;;;;2.98;2.08;;;;;;;25.08;44.08;99571.83;1641202;87;20236;-82
2022/08/30 09:33:04;;;;;;;5.72;2.05;;;;;;;25.20;44.74;99577.38;1640900;87;21208;-81
2022/08/30 09:35:45;;;;;;;9.90;2.60;;;;;;;25.19;43.08;99569.81;1641178;87;21171;-80
2022/08/30 09:38:28;;;;;;;5.25;2.12;;;;;;;25.18;43.18;99568.13;1641013;87;21149;-81
2022/08/30 09:40:57;;;;;;;2.50;1.85;;;;;;;25.28;42.62;99583.43;1641361;87;21078;-78
2022/08/30 09:43:29;;;;;;;4.70;2.00;;;;;;;25.27;42.88;99582.59;1641025;87;21043;-80
2022/08/30 09:46:04;;;;;;;4.62;1.85;;;;;;;25.25;43.84;99579.17;1641359;86;21043;-81
2022/08/30 09:48:39;;;;;;;2.75;1.60;;;;;;;25.29;42.48;99570.33;1641120;87;21320;-80
2022/08/30 09:51:14;;;;;;;5.47;1.70;;;;;;;25.30;42.43;99570.66;1641364;87;21105;-81
2022/08/30 09:53:49;;;;;;;5.40;1.87;;;;;;;25.32;41.82;99574.08;1641024;87;21157;-80
2022/08/30 09:56:49;;;;;;;10.23;1.85;;;;;;;25.39;43.08;99577.88;1640997;87;21154;-80
2022/08/30 09:59:38;;;;;;;2.33;1.80;;;;;;;25.47;43.37;99572.61;1593209;87;21035;-80
2022/08/30 10:02:31;;;;;;;2.83;1.70;;;;;;;25.45;43.50;99569.69;1640962;86;21265;-81
2022/08/30 10:05:26;;;;;;;5.65;1.80;;;;;;;25.43;43.60;99581.13;1668039;85;22337;-80
2022/08/30 10:08:54;;;;;;;4.50;1.67;;;;;;;25.39;43.83;99569.80;1641044;87;21090;-80
2022/08/30 10:11:56;;;;;;;115.20;69.60;;;;;;;25.43;43.56;99573.04;1609252;88;21142;-79
2022/08/30 10:14:48;;;;;;;62.23;36.28;;;;;;;25.55;43.80;99565.98;1606676;89;21454;-80
2022/08/30 10:17:37;;;;;;;143.17;77.92;;;;;;;25.71;43.27;99566.67;1633905;87;21246;-80
2022/08/30 10:20:21;;;;;;;36.98;18.90;;;;;;;25.83;42.31;99563.28;1640881;86;21095;-79
2022/08/30 10:22:59;;;;;;;55.70;29.55;;;;;;;25.91;42.15;99558.50;1622156;87;21158;-80
2022/08/30 10:25:31;;;;;;;10.80;5.33;;;;;;;25.99;40.87;99572.11;1641023;86;21077;-80
2022/08/30 10:28:13;;;;;;;2.30;1.82;;;;;;;25.91;41.43;99565.23;1641241;87;21169;-81
2022/08/30 10:30:43;;;;;;;8.70;5.25;;;;;;;25.92;39.43;99579.91;1641164;87;21308;-80
2022/08/30 10:33:22;;;;;;;18.52;11.20;;;;;;;25.82;39.42;99577.74;1641382;86;21586;-79
2022/08/30 10:35:57;;;;;;;6.08;2.20;;;;;;;25.72;39.90;99566.17;1640847;87;21969;-82
2022/08/30 10:38:33;;;;;;;4.80;1.50;;;;;;;25.74;40.98;99574.97;1641337;87;21070;-82
2022/08/30 10:41:17;;;;;;;5.75;1.95;;;;;;;25.80;41.17;99558.69;1641225;87;20994;-81
2022/08/30 10:44:10;;;;;;;4.33;2.60;;;;;;;25.88;41.38;99554.75;1641429;86;25997;-80
2022/08/30 10:47:23;;;;;;;4.17;2.20;;;;;;;25.95;42.17;99549.97;1640978;86;21105;-81
2022/08/30 10:50:10;;;;;;;4.55;1.32;;;;;;;26.12;41.71;99547.45;1641438;87;21593;-79
2022/08/30 10:53:15;;;;;;;7.25;2.08;;;;;;;26.14;42.26;99548.14;1609086;89;21147;-80
2022/08/30 10:55:52;;;;;;;2.10;1.50;;;;;;;26.26;41.39;99547.42;1639164;86;21414;-81
2022/08/30 10:58:19;;;;;;;3.55;1.30;;;;;;;26.43;40.46;99556.03;1641100;86;21260;-81
2022/08/30 11:01:16;;;;;;;1.67;1.50;;;;;;;26.45;40.60;99550.48;1641208;87;21126;-80
2022/08/30 11:04:20;;;;;;;3.05;1.70;;;;;;;26.40;40.84;99544.20;1641232;87;20979;-81
2022/08/30 11:07:04;;;;;;;4.67;1.60;;;;;;;26.36;41.10;99538.78;1641041;86;21146;-80
2022/08/30 11:09:43;;;;;;;2.00;1.80;;;;;;;26.47;41.38;99534.98;1641262;87;21079;-81
2022/08/30 11:12:32;;;;;;;8.98;1.62;;;;;;;26.64;40.45;99540.05;1641255;87;21236;-82
2022/08/30 11:15:13;;;;;;;3.22;1.30;;;;;;;26.59;40.21;99537.78;1641319;87;21560;-81
2022/08/30 11:18:01;;;;;;;2.83;1.72;;;;;;;26.49;39.57;99543.77;1642852;87;21102;-81
2022/08/30 11:20:33;;;;;;;1.22;1.15;;;;;;;26.32;40.45;99534.16;1641131;87;21129;-82
2022/08/30 11:23:29;;;;;;;1.85;1.22;;;;;;;26.31;39.85;99533.84;1641332;86;21272;-80
2022/08/30 11:26:03;;;;;;;5.17;1.50;;;;;;;26.33;40.29;99534.52;1641316;87;21227;-77
2022/08/30 11:28:39;;;;;;;3.33;1.40;;;;;;;26.37;38.99;99525.62;1641232;87;21141;-80
2022/08/30 11:31:38;;;;;;;5.37;1.57;;;;;;;26.39;39.43;99528.16;1641206;87;21105;-80
2022/08/30 11:34:05;;;;;;;3.98;1.70;;;;;;;26.40;39.33;99523.97;1640444;87;21097;-80
2022/08/30 11:36:40;;;;;;;5.78;1.50;;;;;;;26.48;38.87;99529.44;1641260;86;21027;-80
2022/08/30 11:39:13;;;;;;;5.30;1.30;;;;;;;26.51;38.44;99536.36;1641133;87;21171;-81
2022/08/30 11:41:45;;;;;;;4.50;1.35;;;;;;;26.52;38.83;99529.97;1626368;87;21157;-82
2022/08/30 11:44:16;;;;;;;3.05;1.45;;;;;;;26.57;39.49;99533.05;1641545;87;21628;-80
2022/08/30 11:46:43;;;;;;;5.80;2.05;;;;;;;26.68;39.59;99516.65;1641225;86;21086;-80
2022/08/30 11:49:15;;;;;;;4.22;1.50;;;;;;;26.84;38.58;99514.55;1641263;87;22321;-81